You are not logged in, Click here to log in
ICAO: ENOV Country: Norway
Latitude: 62.18 Longitude: 6.0741
Total Arrivals: 3 Total Departures: 2
Latest Arrival: SV565 (OMDB-ENOV)Stone. Chang Latest Departure: WF165 (ENOV-ENBR)Stone. Chang
Scenery: http://forums.x-plane.org/index.php?%2Ffiles%2Ffile%2F37487-enov-%C3%B8rsta-volda-airport-custom-hd-airport%2F
METAR : ENOV 210720Z 24004KT 200V280 9999 VCSH FEW025 BKN051 12/07 Q1020 RMK WIND 2175FT 24013KT

Ørsta-沃爾達機場 HOV